createdAt,value
2018-03-27T00:01:09.457Z,51.97
2018-03-27T00:03:37.524Z,48.70
2018-03-27T00:06:05.632Z,48.33
2018-03-27T00:08:32.990Z,51.23
2018-03-27T00:11:00.736Z,51.20
2018-03-27T00:13:28.097Z,51.57
2018-03-27T00:15:55.492Z,52.00
2018-03-27T00:18:23.755Z,53.07
2018-03-27T00:20:51.088Z,49.00
2018-03-27T00:23:19.169Z,47.70
2018-03-27T00:25:47.280Z,50.13
2018-03-27T00:28:26.796Z,48.43
2018-03-27T00:31:12.529Z,49.57
2018-03-27T00:33:53.264Z,50.63
2018-03-27T00:36:33.659Z,48.43
2018-03-27T00:39:19.580Z,48.07
2018-03-27T00:44:55.125Z,43.17
2018-03-27T00:47:22.337Z,38.13
2018-03-27T00:49:50.400Z,39.70
2018-03-27T00:52:18.840Z,41.93
2018-03-27T00:54:46.908Z,36.50
2018-03-27T00:57:14.260Z,29.50
2018-03-27T00:59:41.604Z,38.87
2018-03-27T01:02:09.899Z,40.97
2018-03-27T01:04:37.282Z,41.07
2018-03-27T01:07:05.569Z,38.93
2018-03-27T01:09:32.924Z,35.23
2018-03-27T01:12:00.284Z,39.87
2018-03-27T01:14:28.417Z,30.20
2018-03-27T01:16:55.744Z,28.50
2018-03-27T01:19:23.852Z,31.30
2018-03-27T01:21:51.152Z,32.63
2018-03-27T01:24:19.385Z,40.30
2018-03-27T01:26:46.713Z,29.70
2018-03-27T01:29:14.068Z,32.43
2018-03-27T01:31:41.441Z,36.07
2018-03-27T01:34:08.800Z,40.23
2018-03-27T01:36:36.226Z,30.50
2018-03-27T01:39:04.302Z,33.87
2018-03-27T01:41:31.704Z,31.80
2018-03-27T01:43:59.016Z,36.53
2018-03-27T01:46:27.105Z,32.47
2018-03-27T01:48:54.511Z,31.63
2018-03-27T01:51:22.968Z,38.40
2018-03-27T01:53:51.421Z,36.00
2018-03-27T01:56:19.514Z,28.87
2018-03-27T01:58:47.801Z,29.03
2018-03-27T02:01:15.952Z,37.33
2018-03-27T02:03:44.416Z,31.30
2018-03-27T02:06:11.769Z,37.77
2018-03-27T02:08:40.268Z,28.77
2018-03-27T02:11:14.528Z,27.27
2018-03-27T02:13:47.961Z,35.93
2018-03-27T02:16:22.009Z,36.07
2018-03-27T02:18:55.651Z,37.53
2018-03-27T02:21:24.585Z,28.50
2018-03-27T02:23:52.870Z,36.97
2018-03-27T02:26:20.228Z,24.43
2018-03-27T02:28:48.569Z,33.67
2018-03-27T02:31:16.678Z,35.00
2018-03-27T02:33:44.969Z,35.40
2018-03-27T02:36:13.267Z,34.30
2018-03-27T02:38:40.728Z,38.20
2018-03-27T02:41:08.224Z,37.77
2018-03-27T02:43:36.538Z,38.07
2018-03-27T02:46:04.995Z,36.60
2018-03-27T02:48:32.381Z,34.97
2018-03-27T02:50:59.725Z,34.53
2018-03-27T02:53:27.072Z,40.70
2018-03-27T02:55:55.320Z,31.73
2018-03-27T02:58:23.599Z,39.33
2018-03-27T03:00:50.941Z,41.83
2018-03-27T03:03:18.396Z,37.87
2018-03-27T03:05:46.632Z,33.53
2018-03-27T03:08:13.956Z,35.67
2018-03-27T03:10:42.287Z,40.07
2018-03-27T03:13:10.555Z,37.57
2018-03-27T03:15:37.976Z,40.23
2018-03-27T03:18:06.240Z,36.13
2018-03-27T03:20:34.452Z,38.63
2018-03-27T03:23:01.816Z,37.47
2018-03-27T03:25:30.064Z,38.17
2018-03-27T03:27:57.476Z,35.03
2018-03-27T03:30:24.840Z,32.97
2018-03-27T03:32:53.127Z,32.73
2018-03-27T03:35:20.452Z,39.83
2018-03-27T03:37:47.807Z,38.63
2018-03-27T03:40:15.887Z,38.03
2018-03-27T03:42:43.251Z,37.03
2018-03-27T03:45:11.535Z,37.70
2018-03-27T03:47:38.912Z,39.93
2018-03-27T03:50:07.024Z,35.67
2018-03-27T03:52:34.599Z,33.47
2018-03-27T03:55:03.043Z,34.30
2018-03-27T03:57:30.448Z,40.97
2018-03-27T03:59:57.821Z,34.70
2018-03-27T04:02:26.084Z,27.50
2018-03-27T04:04:54.388Z,37.70
2018-03-27T04:07:22.449Z,43.73
2018-03-27T04:09:50.579Z,38.73
2018-03-27T04:12:17.933Z,38.43
2018-03-27T04:14:46.352Z,36.60
2018-03-27T04:17:14.477Z,39.00
2018-03-27T04:19:42.992Z,37.30
2018-03-27T04:22:11.159Z,37.67
2018-03-27T04:24:38.760Z,37.07
2018-03-27T04:27:06.115Z,39.53
2018-03-27T04:29:33.474Z,31.37
2018-03-27T04:32:01.665Z,38.73
2018-03-27T04:34:29.060Z,35.13
2018-03-27T04:36:56.500Z,31.33
2018-03-27T04:39:24.778Z,39.23
2018-03-27T04:41:52.132Z,41.67
2018-03-27T04:44:19.499Z,37.93
2018-03-27T04:46:46.861Z,42.40
2018-03-27T04:49:14.352Z,30.87
2018-03-27T04:51:42.488Z,45.13
2018-03-27T04:54:10.867Z,40.77
2018-03-27T04:56:39.023Z,33.30
2018-03-27T04:59:06.541Z,34.83
2018-03-27T05:01:34.240Z,38.40
2018-03-27T05:04:01.604Z,35.20
2018-03-27T05:06:29.006Z,44.37
2018-03-27T05:08:56.373Z,38.80
2018-03-27T05:11:23.713Z,42.03
2018-03-27T05:13:51.799Z,41.20
2018-03-27T05:16:20.108Z,39.40
2018-03-27T05:18:48.418Z,38.67
2018-03-27T05:21:15.781Z,33.53
2018-03-27T05:23:43.088Z,41.57
2018-03-27T05:26:11.227Z,34.97
2018-03-27T05:28:38.624Z,36.53
2018-03-27T05:31:05.971Z,35.40
2018-03-27T05:33:33.538Z,44.20
2018-03-27T05:36:01.667Z,37.40
2018-03-27T05:38:29.028Z,40.33
2018-03-27T05:40:57.177Z,37.97
2018-03-27T05:43:24.527Z,43.43
2018-03-27T05:45:52.835Z,40.50
2018-03-27T05:48:20.212Z,36.57
2018-03-27T05:50:48.359Z,38.40
2018-03-27T05:53:16.490Z,30.93
2018-03-27T05:55:44.792Z,34.37
2018-03-27T05:58:12.160Z,39.87
2018-03-27T06:00:40.428Z,43.87
2018-03-27T06:03:07.807Z,32.63
2018-03-27T06:05:35.968Z,32.13
2018-03-27T06:08:04.220Z,42.00
2018-03-27T06:10:32.533Z,38.73
2018-03-27T06:13:00.869Z,36.07
2018-03-27T06:15:28.287Z,38.70
2018-03-27T06:17:55.682Z,38.53
2018-03-27T06:20:23.149Z,40.23
2018-03-27T06:22:51.261Z,32.10
2018-03-27T06:25:18.669Z,42.33
2018-03-27T06:27:46.935Z,34.70
2018-03-27T06:30:14.308Z,42.67
2018-03-27T06:32:41.683Z,41.73
2018-03-27T06:35:09.780Z,32.80
2018-03-27T06:37:37.160Z,41.87
2018-03-27T06:40:04.520Z,39.27
2018-03-27T06:42:32.688Z,41.23
2018-03-27T06:45:01.019Z,38.70
2018-03-27T06:47:29.353Z,37.53
2018-03-27T06:49:57.653Z,38.53
2018-03-27T06:52:25.017Z,40.43
2018-03-27T06:54:53.121Z,35.00
2018-03-27T06:57:20.497Z,37.30
2018-03-27T06:59:48.815Z,40.40
2018-03-27T07:02:16.923Z,40.33
2018-03-27T07:04:44.284Z,38.33
2018-03-27T07:07:11.730Z,41.87
2018-03-27T07:09:39.959Z,38.40
2018-03-27T07:12:07.339Z,38.47
2018-03-27T07:14:35.287Z,39.13
2018-03-27T07:17:03.408Z,38.80
2018-03-27T07:19:31.456Z,38.07
2018-03-27T07:21:58.829Z,38.00
2018-03-27T07:24:27.154Z,36.53
2018-03-27T07:26:54.978Z,34.83
2018-03-27T07:29:22.385Z,33.37
2018-03-27T07:31:49.723Z,35.50
2018-03-27T07:34:17.117Z,34.13
2018-03-27T07:36:44.463Z,34.27
2018-03-27T07:39:11.864Z,32.87
2018-03-27T07:41:40.201Z,34.73
2018-03-27T07:44:07.536Z,30.83
2018-03-27T07:46:35.648Z,31.53
2018-03-27T07:49:03.004Z,25.53
2018-03-27T07:51:31.309Z,31.93
2018-03-27T07:53:59.450Z,26.13
2018-03-27T07:56:26.900Z,31.10
2018-03-27T07:58:55.179Z,32.07
2018-03-27T08:01:23.493Z,30.33
2018-03-27T08:03:50.980Z,28.53
2018-03-27T08:06:18.347Z,27.77
2018-03-27T08:08:46.654Z,28.53
2018-03-27T08:11:14.007Z,24.80
2018-03-27T08:13:42.408Z,27.00
2018-03-27T08:16:10.556Z,25.13
2018-03-27T08:18:38.873Z,27.73
2018-03-27T08:21:06.298Z,22.30
2018-03-27T08:23:34.600Z,22.20
2018-03-27T08:26:01.930Z,21.97
2018-03-27T08:28:30.294Z,18.33
2018-03-27T08:30:57.641Z,14.43
2018-03-27T08:33:25.998Z,18.47
2018-03-27T08:35:53.368Z,14.97
2018-03-27T08:38:20.780Z,18.03
2018-03-27T08:40:50.953Z,21.00
2018-03-27T08:43:18.589Z,19.03
2018-03-27T08:45:45.953Z,16.90
2018-03-27T08:48:14.222Z,17.40
2018-03-27T08:50:41.639Z,18.80
2018-03-27T08:53:09.474Z,19.30
2018-03-27T08:55:36.869Z,21.10
2018-03-27T08:58:05.148Z,18.47
2018-03-27T09:00:32.539Z,16.00
2018-03-27T09:02:59.897Z,17.33
2018-03-27T09:05:28.403Z,19.00
2018-03-27T09:08:02.720Z,16.90
2018-03-27T09:10:31.009Z,15.93
2018-03-27T09:12:59.309Z,15.73
2018-03-27T09:15:27.645Z,15.53
2018-03-27T09:17:55.756Z,19.30
2018-03-27T09:20:23.088Z,17.77
2018-03-27T09:22:51.183Z,13.43
2018-03-27T09:25:18.624Z,15.87
2018-03-27T09:27:47.133Z,16.70
2018-03-27T09:30:14.540Z,17.17
2018-03-27T09:32:42.784Z,17.27
2018-03-27T09:35:10.118Z,13.77
2018-03-27T09:37:38.516Z,14.93
2018-03-27T09:40:05.932Z,14.70
2018-03-27T09:42:34.013Z,13.63
2018-03-27T09:45:01.420Z,12.03
2018-03-27T09:47:28.764Z,12.23
2018-03-27T09:49:56.151Z,11.03
2018-03-27T09:52:24.232Z,11.73
2018-03-27T09:54:52.556Z,11.47
2018-03-27T09:57:20.688Z,9.53
2018-03-27T09:59:48.030Z,8.73
2018-03-27T10:02:17.084Z,12.40
2018-03-27T10:04:45.376Z,14.03
2018-03-27T10:07:12.758Z,12.53
2018-03-27T10:09:40.205Z,11.03
2018-03-27T10:12:08.352Z,10.70
2018-03-27T10:14:35.754Z,13.97
2018-03-27T10:17:03.133Z,16.00
2018-03-27T10:19:31.225Z,10.27
2018-03-27T10:21:58.609Z,12.87
2018-03-27T10:24:33.002Z,14.93
2018-03-27T10:27:01.314Z,15.87
2018-03-27T10:29:28.703Z,10.40
2018-03-27T10:31:56.852Z,12.60
2018-03-27T10:34:24.225Z,12.60
2018-03-27T10:36:52.388Z,13.03
2018-03-27T10:39:20.655Z,11.63
2018-03-27T10:41:48.789Z,11.67
2018-03-27T10:44:17.101Z,13.07
2018-03-27T10:46:45.223Z,14.10
2018-03-27T10:49:13.512Z,17.87
2018-03-27T10:51:41.636Z,9.63
2018-03-27T10:54:09.259Z,13.67
2018-03-27T10:56:37.367Z,14.07
2018-03-27T10:59:04.778Z,16.13
2018-03-27T11:01:32.157Z,11.93
2018-03-27T11:03:59.524Z,18.97
2018-03-27T11:06:27.808Z,16.10
2018-03-27T11:08:55.911Z,18.57
2018-03-27T11:11:23.303Z,22.57
2018-03-27T11:13:50.732Z,21.07
2018-03-27T11:16:18.091Z,19.47
2018-03-27T11:18:46.028Z,18.20
2018-03-27T11:21:14.483Z,19.50
2018-03-27T11:23:41.824Z,16.40
2018-03-27T11:26:09.976Z,19.07
2018-03-27T11:28:37.317Z,17.77
2018-03-27T11:31:04.662Z,17.70
2018-03-27T11:33:32.951Z,17.97
2018-03-27T11:36:00.382Z,19.03
2018-03-27T11:38:28.728Z,17.23
2018-03-27T11:40:56.860Z,17.70
2018-03-27T11:43:24.229Z,16.97
2018-03-27T11:45:52.349Z,17.63
2018-03-27T11:48:19.722Z,17.80
2018-03-27T11:50:48.045Z,14.33
2018-03-27T11:53:15.377Z,12.73
2018-03-27T11:55:43.724Z,15.53
2018-03-27T11:58:11.105Z,15.70
2018-03-27T12:00:38.588Z,13.33
2018-03-27T12:03:06.876Z,15.17
2018-03-27T12:05:34.348Z,10.27
2018-03-27T12:08:02.689Z,13.63
2018-03-27T12:10:30.932Z,9.17
2018-03-27T12:12:58.321Z,12.63
2018-03-27T12:15:25.737Z,10.87
2018-03-27T12:17:53.813Z,17.40
2018-03-27T12:20:21.199Z,16.43
2018-03-27T12:22:49.695Z,10.40
2018-03-27T12:25:17.834Z,13.53
2018-03-27T12:27:45.195Z,10.27
2018-03-27T12:30:12.584Z,12.07
2018-03-27T12:32:40.041Z,11.37
2018-03-27T12:35:07.389Z,12.03
2018-03-27T12:37:34.885Z,11.47
2018-03-27T12:40:02.244Z,12.23
2018-03-27T12:42:29.722Z,11.67
2018-03-27T12:44:57.102Z,14.07
2018-03-27T12:47:25.245Z,9.43
2018-03-27T12:49:52.676Z,8.60
2018-03-27T12:52:20.097Z,11.97
2018-03-27T12:54:47.532Z,10.73
2018-03-27T12:57:15.922Z,10.87
2018-03-27T12:59:44.064Z,13.97
2018-03-27T13:02:11.578Z,10.70
2018-03-27T13:04:39.009Z,10.23
2018-03-27T13:07:06.468Z,11.40
2018-03-27T13:09:33.923Z,10.13
2018-03-27T13:12:02.195Z,11.97
2018-03-27T13:14:30.588Z,11.63
2018-03-27T13:16:57.967Z,8.00
2018-03-27T13:19:26.238Z,10.87
2018-03-27T13:21:54.412Z,10.57
2018-03-27T13:24:21.805Z,8.97
2018-03-27T13:26:49.202Z,12.37
2018-03-27T13:29:17.370Z,11.33
2018-03-27T13:31:44.767Z,11.20
2018-03-27T13:34:12.885Z,10.53
2018-03-27T13:36:40.251Z,12.60
2018-03-27T13:39:08.572Z,13.73
2018-03-27T13:41:36.707Z,11.47
2018-03-27T13:44:04.102Z,8.93
2018-03-27T13:46:31.539Z,10.57
2018-03-27T13:48:59.641Z,14.23
2018-03-27T13:51:28.183Z,12.20
2018-03-27T13:53:56.309Z,13.60
2018-03-27T13:56:24.668Z,7.40
2018-03-27T13:58:53.053Z,8.87
2018-03-27T14:01:20.444Z,11.60
2018-03-27T14:03:48.604Z,11.20
2018-03-27T14:06:16.333Z,9.37
2018-03-27T14:08:43.793Z,8.60
2018-03-27T14:11:11.197Z,8.23
2018-03-27T14:13:38.863Z,10.40
2018-03-27T14:16:06.309Z,13.43
2018-03-27T14:18:34.405Z,10.10
2018-03-27T14:21:01.804Z,7.07
2018-03-27T14:23:29.902Z,11.20
2018-03-27T14:25:58.237Z,10.97
2018-03-27T14:28:25.613Z,10.90
2018-03-27T14:30:53.935Z,9.43
2018-03-27T14:33:22.401Z,14.17
2018-03-27T14:35:50.602Z,10.73
2018-03-27T14:38:18.960Z,11.20
2018-03-27T14:40:46.334Z,12.40
2018-03-27T14:43:13.692Z,11.10
2018-03-27T14:45:41.805Z,10.77
2018-03-27T14:48:09.219Z,11.80
2018-03-27T14:50:37.510Z,8.57
2018-03-27T14:53:05.022Z,11.17
2018-03-27T14:55:32.355Z,8.57
2018-03-27T14:58:00.657Z,9.40
2018-03-27T15:00:28.019Z,6.17
2018-03-27T15:02:56.125Z,10.77
2018-03-27T15:05:23.490Z,12.97
2018-03-27T15:07:50.841Z,14.83
2018-03-27T15:10:18.249Z,10.33
2018-03-27T15:12:45.610Z,14.10
2018-03-27T15:15:13.789Z,14.60
2018-03-27T15:17:41.170Z,10.77
2018-03-27T15:20:09.285Z,13.83
2018-03-27T15:22:37.572Z,12.03
2018-03-27T15:25:05.678Z,11.63
2018-03-27T15:27:33.077Z,12.57
2018-03-27T15:30:01.229Z,13.43
2018-03-27T15:32:29.362Z,12.33
2018-03-27T15:34:57.638Z,8.20
2018-03-27T15:37:25.723Z,13.17
2018-03-27T15:39:54.017Z,11.53
2018-03-27T15:42:21.422Z,11.30
2018-03-27T15:44:48.769Z,14.63
2018-03-27T15:47:17.091Z,10.83
2018-03-27T15:49:45.224Z,11.80
2018-03-27T15:52:12.637Z,12.20
2018-03-27T15:54:41.061Z,12.33
2018-03-27T15:57:08.612Z,9.23
2018-03-27T15:59:36.761Z,12.53
2018-03-27T16:02:05.072Z,12.70
2018-03-27T16:04:32.470Z,12.03
2018-03-27T16:06:59.909Z,13.47
2018-03-27T16:09:27.294Z,12.40
2018-03-27T16:11:54.769Z,14.20
2018-03-27T16:14:23.088Z,15.73
2018-03-27T16:16:50.472Z,16.40
2018-03-27T16:19:17.830Z,13.53
2018-03-27T16:21:46.145Z,15.73
2018-03-27T16:24:14.525Z,14.90
2018-03-27T16:26:42.726Z,15.43
2018-03-27T16:29:10.177Z,13.47
2018-03-27T16:31:37.550Z,16.17
2018-03-27T16:34:04.979Z,15.53
2018-03-27T16:36:33.144Z,14.60
2018-03-27T16:39:01.662Z,15.97
2018-03-27T16:41:29.288Z,16.00
2018-03-27T16:43:57.688Z,16.20
2018-03-27T16:46:25.092Z,14.77
2018-03-27T16:48:53.270Z,14.67
2018-03-27T16:51:21.578Z,15.47
2018-03-27T16:53:48.998Z,13.87
2018-03-27T16:56:17.084Z,13.43
2018-03-27T16:58:45.420Z,13.90
2018-03-27T17:01:12.890Z,17.00
2018-03-27T17:03:41.264Z,14.00
2018-03-27T17:06:08.734Z,14.37
2018-03-27T17:08:36.098Z,13.93
2018-03-27T17:11:03.467Z,16.57
2018-03-27T17:13:31.861Z,19.73
2018-03-27T17:16:00.160Z,15.20
2018-03-27T17:18:28.480Z,15.00
2018-03-27T17:20:55.902Z,13.00
2018-03-27T17:23:24.053Z,15.70
2018-03-27T17:25:51.522Z,15.27
2018-03-27T17:28:19.058Z,15.60
2018-03-27T17:30:47.353Z,14.17
2018-03-27T17:33:14.717Z,16.80
2018-03-27T17:35:42.226Z,16.10
2018-03-27T17:38:10.563Z,16.73
2018-03-27T17:40:38.026Z,16.47
2018-03-27T17:43:05.618Z,16.07
2018-03-27T17:45:33.972Z,16.67
2018-03-27T17:48:01.355Z,15.57
2018-03-27T17:50:29.521Z,15.53
2018-03-27T17:52:56.949Z,15.63
2018-03-27T17:55:24.453Z,14.60
2018-03-27T17:57:51.842Z,14.77
2018-03-27T18:00:20.223Z,28.80
2018-03-27T18:02:48.551Z,16.93
2018-03-27T18:05:16.875Z,16.23
2018-03-27T18:07:44.258Z,16.23
2018-03-27T18:10:11.678Z,18.10
2018-03-27T18:12:39.084Z,17.77
2018-03-27T18:15:07.298Z,17.03
2018-03-27T18:17:34.760Z,15.40
2018-03-27T18:20:02.171Z,15.57
2018-03-27T18:22:29.668Z,18.87
2018-03-27T18:24:57.796Z,15.33
2018-03-27T18:27:26.066Z,16.77
2018-03-27T18:29:54.390Z,16.90
2018-03-27T18:32:22.791Z,16.93
2018-03-27T18:34:50.274Z,18.03
2018-03-27T18:37:18.704Z,17.63
2018-03-27T18:39:47.754Z,18.03
2018-03-27T18:42:15.250Z,17.20
2018-03-27T18:44:42.708Z,19.73
2018-03-27T18:47:10.927Z,17.90
2018-03-27T18:49:39.185Z,18.20
2018-03-27T18:52:06.727Z,17.23
2018-03-27T18:54:34.206Z,18.87
2018-03-27T18:57:01.594Z,18.73
2018-03-27T18:59:29.005Z,19.27
2018-03-27T19:01:56.404Z,20.03
2018-03-27T19:04:24.620Z,18.23
2018-03-27T19:06:52.013Z,18.70
2018-03-27T19:09:38.652Z,18.83
2018-03-27T19:12:20.730Z,18.87
2018-03-27T19:14:53.999Z,19.17
2018-03-27T19:17:21.754Z,18.83
2018-03-27T19:19:50.171Z,18.33
2018-03-27T19:22:17.598Z,17.67
2018-03-27T19:24:47.505Z,18.27
2018-03-27T19:27:22.164Z,17.03
2018-03-27T19:29:52.361Z,17.27
2018-03-27T19:32:20.878Z,16.67
2018-03-27T19:34:49.459Z,18.37
2018-03-27T19:37:17.130Z,17.13
2018-03-27T19:39:48.396Z,21.30
2018-03-27T19:42:19.764Z,20.13
2018-03-27T19:44:47.156Z,17.63
2018-03-27T19:47:14.904Z,18.47
2018-03-27T19:49:42.304Z,18.30
2018-03-27T19:52:09.736Z,20.23
2018-03-27T19:54:40.052Z,17.77
2018-03-27T19:57:07.498Z,19.07
2018-03-27T19:59:35.390Z,17.73
2018-03-27T20:02:03.010Z,19.47
2018-03-27T20:04:30.592Z,18.50
2018-03-27T20:06:57.953Z,18.93
2018-03-27T20:09:25.521Z,20.00
2018-03-27T20:11:53.768Z,19.60
2018-03-27T20:14:21.182Z,19.93
2018-03-27T20:16:48.668Z,21.97
2018-03-27T20:19:16.236Z,19.07
2018-03-27T20:21:43.685Z,19.90
2018-03-27T20:24:11.077Z,18.93
2018-03-27T20:26:38.637Z,20.73
2018-03-27T20:29:06.026Z,19.20
2018-03-27T20:31:33.472Z,21.13
2018-03-27T20:34:01.637Z,19.00
2018-03-27T20:36:29.130Z,22.10
2018-03-27T20:38:56.750Z,22.93
2018-03-27T20:41:24.160Z,20.43
2018-03-27T20:43:52.961Z,21.33
2018-03-27T20:46:20.453Z,22.57
2018-03-27T20:48:48.648Z,20.13
2018-03-27T20:51:16.101Z,20.53
2018-03-27T20:53:44.273Z,22.77
2018-03-27T20:56:12.659Z,20.53
2018-03-27T20:58:40.101Z,21.80
2018-03-27T21:01:08.383Z,20.57
2018-03-27T21:03:35.789Z,21.47
2018-03-27T21:06:03.964Z,23.33
2018-03-27T21:08:31.912Z,25.67
2018-03-27T21:10:59.324Z,21.93
2018-03-27T21:13:26.761Z,23.67
2018-03-27T21:15:55.006Z,21.57
2018-03-27T21:18:22.437Z,24.10
2018-03-27T21:20:49.883Z,22.23
2018-03-27T21:23:17.278Z,23.00
2018-03-27T21:25:44.795Z,23.17
2018-03-27T21:28:12.189Z,21.20
2018-03-27T21:30:39.720Z,20.17
2018-03-27T21:33:07.163Z,20.80
2018-03-27T21:35:35.330Z,21.23
2018-03-27T21:38:03.551Z,17.67
2018-03-27T21:40:31.104Z,20.20
2018-03-27T21:42:58.539Z,20.13
2018-03-27T21:45:25.943Z,19.13
2018-03-27T21:47:59.044Z,22.00
2018-03-27T21:50:38.353Z,21.13
2018-03-27T21:53:06.581Z,18.80
2018-03-27T21:55:35.802Z,18.80
2018-03-27T21:58:04.854Z,19.03
2018-03-27T22:00:32.290Z,19.40
2018-03-27T22:02:59.717Z,18.33
2018-03-27T22:05:27.481Z,18.23
2018-03-27T22:07:54.892Z,17.60
2018-03-27T22:10:24.156Z,15.63
2018-03-27T22:12:51.564Z,15.67
2018-03-27T22:15:19.019Z,16.03
2018-03-27T22:17:47.278Z,16.03
2018-03-27T22:20:16.591Z,16.60
2018-03-27T22:22:44.725Z,17.43
2018-03-27T22:25:13.848Z,17.17
2018-03-27T22:27:44.577Z,16.97
2018-03-27T22:30:11.982Z,16.67
2018-03-27T22:32:42.129Z,14.67
2018-03-27T22:35:10.472Z,15.17
2018-03-27T22:37:37.890Z,15.23
2018-03-27T22:40:06.277Z,13.37
2018-03-27T22:42:34.686Z,13.40
2018-03-27T22:45:02.279Z,13.17
2018-03-27T22:47:33.176Z,12.90
2018-03-27T22:50:00.568Z,12.73
2018-03-27T22:52:27.975Z,12.67
2018-03-27T22:54:55.475Z,12.47
2018-03-27T22:57:23.742Z,12.80
2018-03-27T22:59:51.157Z,12.57
2018-03-27T23:02:21.338Z,11.93
2018-03-27T23:04:48.688Z,13.27
2018-03-27T23:07:16.071Z,12.73
2018-03-27T23:09:43.717Z,12.47
2018-03-27T23:12:11.278Z,14.27
2018-03-27T23:14:39.612Z,11.03
2018-03-27T23:17:06.974Z,11.93
2018-03-27T23:19:34.440Z,12.97
2018-03-27T23:22:01.820Z,11.13
2018-03-27T23:24:30.324Z,12.47
2018-03-27T23:26:57.711Z,12.93
2018-03-27T23:29:25.155Z,11.20
2018-03-27T23:31:52.647Z,12.10
2018-03-27T23:34:20.005Z,12.37
2018-03-27T23:36:47.346Z,12.73
2018-03-27T23:39:14.869Z,11.90
2018-03-27T23:41:42.296Z,10.30
2018-03-27T23:44:09.629Z,12.37
2018-03-27T23:46:37.768Z,11.03
2018-03-27T23:49:05.189Z,11.90
2018-03-27T23:51:33.300Z,12.13
2018-03-27T23:54:01.468Z,12.63
2018-03-27T23:56:29.792Z,11.30
2018-03-27T23:58:57.224Z,11.03
